Time;durP1;ratioP1;P1;durP2;ratioP2;P2;SDS_P1;SDS_P2;PMS_P1;PMS_P2;Temp;Humidity;BMP_temperature;BMP_pressure;BME280_temperature;BME280_humidity;BME280_pressure;Samples;Min_cycle;Max_cycle;Signal;HPM_P1;HPM_P2
2023/07/15 00:02:09;;;;;;;4.00;2.40;;;;;;;25.52;47.86;100608.21;108121;1284;21987;-67
2023/07/15 00:04:35;;;;;;;3.80;2.20;;;;;;;25.50;47.84;100609.02;107976;1288;21992;-61
2023/07/15 00:07:05;;;;;;;5.80;2.40;;;;;;;25.47;47.98;100606.92;108115;1284;24367;-60
2023/07/15 00:09:34;;;;;;;9.80;3.30;;;;;;;25.46;47.94;100609.36;108086;1288;21991;-60
2023/07/15 00:12:00;;;;;;;5.70;2.80;;;;;;;25.47;48.32;100611.27;108123;1288;21994;-60
2023/07/15 00:14:26;;;;;;;9.90;2.80;;;;;;;25.47;48.46;100609.81;108020;1288;21989;-69
2023/07/15 00:16:51;;;;;;;7.20;3.10;;;;;;;25.44;48.52;100608.56;108137;1288;22058;-61
2023/07/15 00:19:19;;;;;;;3.70;2.10;;;;;;;25.40;48.69;100609.38;108086;1288;22036;-61
2023/07/15 00:21:45;;;;;;;7.60;2.80;;;;;;;25.36;48.98;100610.17;108149;1288;21992;-60
2023/07/15 00:24:10;;;;;;;6.60;2.70;;;;;;;25.34;48.76;100609.41;108125;1288;21991;-68
2023/07/15 00:26:37;;;;;;;6.40;2.70;;;;;;;25.34;49.22;100612.33;108103;1287;22029;-60
2023/07/15 00:29:03;;;;;;;5.50;2.80;;;;;;;25.32;49.32;100609.79;108082;1283;21981;-67
2023/07/15 00:31:30;;;;;;;6.00;2.60;;;;;;;25.29;49.31;100612.68;108143;1288;22004;-61
2023/07/15 00:33:56;;;;;;;6.20;2.70;;;;;;;25.28;49.36;100612.88;108089;1288;21987;-67
2023/07/15 00:36:21;;;;;;;4.60;2.20;;;;;;;25.32;49.36;100614.28;108083;1284;23757;-60
2023/07/15 00:38:48;;;;;;;4.00;2.40;;;;;;;25.34;49.28;100612.81;108116;1280;21992;-67
2023/07/15 00:41:17;;;;;;;5.50;2.40;;;;;;;25.37;49.31;100613.17;108070;1288;22008;-69
2023/07/15 00:44:02;;;;;;;4.80;2.50;;;;;;;25.35;49.27;100614.71;107981;1283;21992;-61
2023/07/15 00:46:31;;;;;;;5.90;2.50;;;;;;;25.35;49.35;100617.47;108072;1288;22173;-67
2023/07/15 00:49:18;;;;;;;6.70;2.70;;;;;;;25.35;49.41;100616.94;108185;1283;23081;-60
2023/07/15 00:51:47;;;;;;;5.30;2.40;;;;;;;25.36;49.28;100618.42;108198;1280;22010;-68
2023/07/15 00:54:13;;;;;;;5.00;2.60;;;;;;;25.40;49.17;100615.69;108080;1288;21992;-67
2023/07/15 00:56:40;;;;;;;5.40;2.60;;;;;;;25.42;49.31;100622.52;108141;1288;21997;-61
2023/07/15 00:59:06;;;;;;;7.60;2.60;;;;;;;25.43;49.56;100624.82;108138;1285;22007;-68
2023/07/15 01:01:32;;;;;;;3.80;2.40;;;;;;;25.37;49.44;100622.84;108133;1288;21986;-68
2023/07/15 01:03:58;;;;;;;4.60;2.40;;;;;;;25.29;49.93;100625.21;107803;1286;21996;-68
2023/07/15 01:06:24;;;;;;;4.40;2.30;;;;;;;25.18;50.15;100629.09;108077;1288;22034;-67
2023/07/15 01:08:49;;;;;;;4.90;2.90;;;;;;;25.09;50.18;100628.57;108025;1288;22004;-67
2023/07/15 01:11:15;;;;;;;5.40;2.50;;;;;;;25.06;50.75;100628.63;108112;1288;21986;-68
2023/07/15 01:13:41;;;;;;;8.80;3.10;;;;;;;25.03;51.13;100631.50;108184;1284;21993;-60
2023/07/15 01:16:07;;;;;;;8.00;2.90;;;;;;;25.01;51.21;100632.73;108022;1288;21990;-60
2023/07/15 01:18:32;;;;;;;7.30;2.60;;;;;;;24.98;51.67;100634.35;107980;1285;23230;-68
2023/07/15 01:20:59;;;;;;;8.60;3.10;;;;;;;24.96;51.56;100632.54;107962;1289;22005;-68
2023/07/15 01:23:26;;;;;;;8.00;3.30;;;;;;;24.95;51.41;100632.05;107851;1286;22001;-60
2023/07/15 01:25:51;;;;;;;7.70;2.70;;;;;;;24.98;51.43;100632.23;107983;1289;21998;-67
2023/07/15 01:28:18;;;;;;;9.10;3.20;;;;;;;24.99;51.66;100636.67;107983;1289;22003;-68
2023/07/15 01:30:43;;;;;;;10.70;2.80;;;;;;;24.98;51.43;100634.73;108002;1287;22001;-68
2023/07/15 01:33:09;;;;;;;6.50;3.10;;;;;;;25.02;51.24;100633.34;107994;1289;22462;-61
2023/07/15 01:35:35;;;;;;;9.50;2.60;;;;;;;25.03;51.48;100635.09;107972;1289;21971;-68
2023/07/15 01:38:01;;;;;;;8.90;3.00;;;;;;;25.04;51.23;100638.66;108004;1286;22052;-61
2023/07/15 01:40:27;;;;;;;6.90;3.00;;;;;;;25.08;51.12;100638.33;107997;1288;23618;-60
2023/07/15 01:42:53;;;;;;;9.60;3.60;;;;;;;25.10;50.96;100637.33;107993;1287;22010;-61
2023/07/15 01:45:18;;;;;;;11.80;3.90;;;;;;;25.13;50.91;100641.98;107983;1289;21992;-60
2023/07/15 01:47:47;;;;;;;8.10;2.70;;;;;;;25.14;51.10;100638.48;108049;1289;21993;-68
2023/07/15 01:50:13;;;;;;;6.60;3.00;;;;;;;25.13;51.08;100644.69;108000;1289;22001;-66
2023/07/15 01:52:38;;;;;;;9.70;2.70;;;;;;;25.08;51.20;100646.23;107995;1287;21991;-67
2023/07/15 01:55:05;;;;;;;6.80;2.80;;;;;;;25.05;51.07;100645.52;107978;1289;21992;-68
2023/07/15 01:57:31;;;;;;;11.70;3.20;;;;;;;25.04;51.32;100647.08;108026;1287;22044;-68
2023/07/15 01:59:57;;;;;;;8.00;3.30;;;;;;;25.04;51.36;100648.88;108021;1289;22167;-61
2023/07/15 02:02:24;;;;;;;8.50;2.90;;;;;;;25.03;51.17;100649.65;108016;1289;21988;-61
2023/07/15 02:04:50;;;;;;;13.50;3.30;;;;;;;25.01;51.40;100650.14;108010;1287;22346;-60
2023/07/15 02:07:15;;;;;;;7.30;3.10;;;;;;;24.98;51.26;100654.31;108128;1288;22004;-64
2023/07/15 02:09:41;;;;;;;5.50;2.60;;;;;;;24.97;51.28;100654.55;108027;1288;21993;-60
2023/07/15 02:12:07;;;;;;;9.20;3.20;;;;;;;24.96;51.49;100659.81;108035;1288;21992;-62
2023/07/15 02:14:36;;;;;;;12.20;3.70;;;;;;;24.94;51.65;100661.06;108048;1281;22013;-60
2023/07/15 02:17:03;;;;;;;12.10;4.00;;;;;;;24.91;51.79;100661.23;108073;1285;21998;-61
2023/07/15 02:19:32;;;;;;;23.20;4.60;;;;;;;24.90;52.03;100665.79;108136;1286;21995;-61
2023/07/15 02:21:59;;;;;;;19.70;4.00;;;;;;;24.89;51.78;100666.94;108046;1288;23657;-61
2023/07/15 02:24:25;;;;;;;19.80;3.90;;;;;;;24.88;52.14;100668.77;108067;1288;23121;-60
2023/07/15 02:26:51;;;;;;;17.10;4.20;;;;;;;24.86;52.06;100670.17;107932;1285;21988;-68
2023/07/15 02:29:17;;;;;;;15.50;3.80;;;;;;;24.83;52.12;100674.86;108207;1287;22012;-67
2023/07/15 02:31:44;;;;;;;12.50;3.30;;;;;;;24.78;52.23;100673.63;108026;1289;21975;-61
2023/07/15 02:34:10;;;;;;;11.70;3.90;;;;;;;24.73;52.39;100676.41;108080;1287;22163;-67
2023/07/15 02:36:36;;;;;;;10.80;3.50;;;;;;;24.67;52.83;100676.45;108013;1282;21989;-67
2023/07/15 02:39:04;;;;;;;11.40;3.10;;;;;;;24.63;52.88;100673.84;108040;1289;21995;-60
2023/07/15 02:41:31;;;;;;;9.00;3.30;;;;;;;24.61;52.77;100676.48;108049;1289;24311;-68
2023/07/15 02:43:56;;;;;;;8.70;3.30;;;;;;;24.61;53.05;100682.75;108028;1289;21976;-61
2023/07/15 02:46:22;;;;;;;12.50;4.60;;;;;;;24.59;53.00;100681.43;107987;1286;21988;-69
2023/07/15 02:48:48;;;;;;;11.60;3.30;;;;;;;24.56;53.11;100685.45;108046;1289;21992;-61
2023/07/15 02:51:13;;;;;;;9.80;2.70;;;;;;;24.57;52.92;100687.84;108021;1281;21992;-62
2023/07/15 02:53:39;;;;;;;12.90;2.90;;;;;;;24.56;53.20;100693.16;107939;1289;21990;-62
2023/07/15 02:56:06;;;;;;;10.90;3.40;;;;;;;24.57;53.23;100695.03;107918;1287;24171;-62
2023/07/15 02:58:32;;;;;;;8.40;3.40;;;;;;;24.59;53.49;100698.12;108101;1287;22026;-62
2023/07/15 03:00:57;;;;;;;13.40;3.40;;;;;;;24.58;53.65;100701.40;107951;1289;22009;-62
2023/07/15 03:03:24;;;;;;;16.70;4.20;;;;;;;24.59;53.71;100701.21;107984;1289;21997;-61
2023/07/15 03:05:50;;;;;;;16.50;2.90;;;;;;;24.60;54.15;100700.72;108005;1289;21994;-70
2023/07/15 03:08:15;;;;;;;11.90;3.70;;;;;;;24.62;54.04;100702.39;108039;1285;21990;-70
2023/07/15 03:10:43;;;;;;;8.40;2.80;;;;;;;24.66;53.85;100701.83;108017;1288;21999;-71
2023/07/15 03:13:09;;;;;;;10.90;3.40;;;;;;;24.71;53.74;100704.55;108028;1289;22033;-62
2023/07/15 03:15:35;;;;;;;10.10;3.50;;;;;;;24.75;53.74;100704.46;107976;1288;21992;-70
2023/07/15 03:18:04;;;;;;;10.90;2.70;;;;;;;24.75;54.02;100706.81;108096;1286;22000;-70
2023/07/15 03:20:30;;;;;;;8.70;2.60;;;;;;;24.76;53.99;100708.00;108136;1287;21999;-65
2023/07/15 03:22:56;;;;;;;12.10;3.10;;;;;;;24.77;53.96;100709.75;108127;1283;22005;-61
2023/07/15 03:25:22;;;;;;;6.10;2.70;;;;;;;24.81;54.01;100709.27;108138;1287;21995;-71
2023/07/15 03:27:48;;;;;;;9.60;2.80;;;;;;;24.82;54.21;100710.81;108112;1286;21980;-70
2023/07/15 03:30:13;;;;;;;5.60;2.40;;;;;;;24.83;54.25;100712.17;108014;1284;22002;-68
2023/07/15 03:32:41;;;;;;;9.70;3.00;;;;;;;24.86;54.72;100712.71;107984;1286;22009;-62
2023/07/15 03:35:12;;;;;;;11.00;2.60;;;;;;;24.90;55.08;100712.64;108010;1286;21990;-62
2023/07/15 03:37:42;;;;;;;7.10;2.90;;;;;;;24.92;55.09;100711.80;108138;1288;22002;-71
2023/07/15 03:40:08;;;;;;;;;;;;;;;24.95;55.30;100710.12;108102;1287;22110;-61
2023/07/15 03:42:35;;;;;;;8.10;4.10;;;;;;;25.03;55.41;100710.16;108142;1288;22001;-62
2023/07/15 03:45:01;;;;;;;7.00;2.30;;;;;;;25.09;55.57;100713.86;108087;1283;21982;-71
2023/07/15 03:47:30;;;;;;;5.10;2.20;;;;;;;25.10;56.03;100715.05;108031;1289;22456;-61
2023/07/15 03:49:55;;;;;;;6.60;2.90;;;;;;;25.17;56.21;100717.27;107957;1284;24090;-70
2023/07/15 03:52:21;;;;;;;5.40;2.50;;;;;;;25.26;57.12;100720.23;108028;1284;23071;-62
2023/07/15 03:54:47;;;;;;;6.30;2.80;;;;;;;25.35;56.72;100722.15;108084;1288;21992;-62
2023/07/15 03:57:12;;;;;;;4.00;2.10;;;;;;;25.44;56.43;100722.25;108138;1282;21987;-71
2023/07/15 03:59:38;;;;;;;7.00;2.60;;;;;;;25.54;56.53;100725.90;106134;1283;2648453;-70
2023/07/15 04:02:04;;;;;;;3.90;2.20;;;;;;;25.66;56.18;100721.48;108114;1288;21989;-61
2023/07/15 04:04:30;;;;;;;5.10;2.60;;;;;;;25.76;55.87;100723.63;108147;1285;22020;-69
2023/07/15 04:06:59;;;;;;;8.40;2.50;;;;;;;25.86;56.03;100725.48;108115;1288;21992;-68
2023/07/15 04:09:25;;;;;;;5.20;2.50;;;;;;;25.94;56.02;100727.96;107999;1280;22000;-60
2023/07/15 04:11:51;;;;;;;4.10;2.10;;;;;;;26.03;56.05;100727.64;107969;1287;21992;-68
2023/07/15 04:14:17;;;;;;;6.10;2.20;;;;;;;26.12;55.87;100730.43;108002;1281;22926;-69
2023/07/15 04:16:43;;;;;;;6.40;2.30;;;;;;;26.22;55.54;100731.05;107895;1284;23754;-62
2023/07/15 04:19:09;;;;;;;5.10;2.30;;;;;;;26.32;55.19;100729.05;108061;1287;21996;-60
2023/07/15 04:21:36;;;;;;;4.90;2.40;;;;;;;26.42;55.27;100731.85;108139;1283;22494;-69
2023/07/15 04:24:03;;;;;;;6.40;2.70;;;;;;;26.53;55.10;100733.44;108083;1287;21990;-69
2023/07/15 04:26:29;;;;;;;5.90;2.20;;;;;;;26.64;54.89;100734.58;108130;1284;22030;-61
2023/07/15 04:28:54;;;;;;;7.40;2.40;;;;;;;26.74;54.86;100736.19;108054;1288;23647;-66
2023/07/15 04:31:20;;;;;;;7.60;2.70;;;;;;;26.84;54.50;100739.23;108165;1288;21987;-62
2023/07/15 04:33:48;;;;;;;6.10;2.50;;;;;;;26.97;54.27;100736.13;108191;1284;21989;-60
2023/07/15 04:36:14;;;;;;;3.40;2.30;;;;;;;27.10;54.06;100738.20;108136;1284;21999;-68
2023/07/15 04:38:40;;;;;;;4.60;2.30;;;;;;;27.22;53.96;100737.29;108322;1288;23056;-60
2023/07/15 04:41:06;;;;;;;4.90;2.50;;;;;;;27.34;53.86;100740.34;108120;1281;23053;-68
2023/07/15 04:43:32;;;;;;;7.40;2.60;;;;;;;27.48;53.55;100741.96;108083;1288;22014;-61
2023/07/15 04:45:59;;;;;;;4.70;2.30;;;;;;;27.66;53.38;100741.71;108025;1288;21980;-68
2023/07/15 04:48:24;;;;;;;6.60;2.50;;;;;;;27.81;53.10;100741.39;108070;1284;22615;-67
2023/07/15 04:50:50;;;;;;;5.20;3.00;;;;;;;27.93;52.94;100741.15;107997;1283;21997;-68
2023/07/15 04:53:16;;;;;;;5.70;2.40;;;;;;;28.05;52.42;100743.45;107950;1288;21962;-68
2023/07/15 04:55:42;;;;;;;7.10;2.80;;;;;;;28.13;52.04;100748.08;108091;1288;21998;-60
2023/07/15 04:58:11;;;;;;;18.10;9.90;;;;;;;28.21;51.92;100749.98;108136;1282;21989;-60
2023/07/15 05:00:37;;;;;;;30.80;18.60;;;;;;;28.31;51.77;100751.33;108094;1287;22059;-61
2023/07/15 05:03:06;;;;;;;29.60;16.10;;;;;;;28.40;51.93;100750.94;108122;1276;21994;-62
2023/07/15 05:05:32;;;;;;;11.80;7.20;;;;;;;28.52;51.58;100755.56;108268;1281;23275;-61
2023/07/15 05:08:15;;;;;;;8.40;5.00;;;;;;;28.63;51.66;100754.69;108145;1282;21978;-67
2023/07/15 05:10:42;;;;;;;8.70;3.70;;;;;;;28.76;51.43;100760.52;108101;1284;23071;-67
2023/07/15 05:13:08;;;;;;;8.90;3.30;;;;;;;28.88;51.06;100761.66;108096;1288;22010;-69
2023/07/15 05:15:35;;;;;;;7.60;4.00;;;;;;;29.07;51.04;100764.23;108097;1284;21991;-68
2023/07/15 05:18:01;;;;;;;6.60;3.10;;;;;;;29.23;50.62;100762.01;108120;1288;21995;-61
2023/07/15 05:20:27;;;;;;;11.60;3.30;;;;;;;29.37;50.11;100760.27;108072;1288;21996;-68
2023/07/15 05:22:52;;;;;;;8.90;5.30;;;;;;;29.57;50.19;100760.59;107992;1287;21997;-61
2023/07/15 05:25:18;;;;;;;20.00;10.60;;;;;;;29.72;49.99;100758.69;107930;1284;21990;-67
2023/07/15 05:27:44;;;;;;;9.00;4.40;;;;;;;29.84;49.51;100759.13;108067;1289;21988;-61
2023/07/15 05:30:10;;;;;;;6.10;3.50;;;;;;;29.91;49.38;100763.81;107990;1289;21965;-61
2023/07/15 05:32:36;;;;;;;7.00;4.00;;;;;;;29.99;49.25;100762.48;108016;1289;22629;-67
2023/07/15 05:35:04;;;;;;;5.00;2.90;;;;;;;30.12;49.44;100759.06;108021;1280;21991;-61
2023/07/15 05:37:29;;;;;;;5.50;3.00;;;;;;;30.24;49.37;100758.90;107994;1289;21988;-67
2023/07/15 05:39:55;;;;;;;5.40;2.80;;;;;;;30.37;48.87;100761.17;108023;1289;21990;-62
2023/07/15 05:42:21;;;;;;;7.50;2.90;;;;;;;30.49;48.66;100760.79;108026;1287;23612;-66
2023/07/15 05:44:46;;;;;;;5.00;2.60;;;;;;;30.57;48.26;100758.48;108062;1277;21988;-67
2023/07/15 05:47:12;;;;;;;6.30;2.70;;;;;;;30.70;48.35;100757.52;107914;1288;21984;-61
2023/07/15 05:49:38;;;;;;;2.90;2.20;;;;;;;30.83;47.95;100757.44;107958;1288;23640;-68
2023/07/15 05:52:04;;;;;;;5.50;2.40;;;;;;;30.96;47.80;100760.35;108110;1280;21989;-68
2023/07/15 05:54:31;;;;;;;6.20;2.50;;;;;;;31.11;47.74;100761.73;108067;1283;21983;-67
2023/07/15 05:56:56;;;;;;;5.10;2.20;;;;;;;31.28;47.53;100759.25;107969;1287;22000;-61
2023/07/15 05:59:22;;;;;;;5.10;2.50;;;;;;;31.45;47.53;100757.09;107980;1283;21998;-61
2023/07/15 06:01:48;;;;;;;5.20;2.60;;;;;;;31.62;47.01;100758.04;108003;1283;23626;-61
2023/07/15 06:04:14;;;;;;;5.90;2.40;;;;;;;31.72;46.21;100761.29;107982;1289;22014;-61
2023/07/15 06:06:39;;;;;;;4.40;2.20;;;;;;;31.77;46.11;100760.56;107967;1286;24403;-62
2023/07/15 06:09:05;;;;;;;6.80;2.50;;;;;;;31.83;45.55;100765.63;107969;1280;21989;-68
2023/07/15 06:11:30;;;;;;;5.60;2.30;;;;;;;31.89;45.09;100764.70;108026;1280;21996;-61
2023/07/15 06:14:00;;;;;;;5.00;2.20;;;;;;;31.97;44.99;100762.66;108026;1283;22046;-70
2023/07/15 06:16:26;;;;;;;7.30;3.10;;;;;;;32.14;45.35;100762.64;108041;1280;21958;-61
2023/07/15 06:18:52;;;;;;;5.70;3.50;;;;;;;32.31;45.03;100761.98;108045;1289;21994;-68
2023/07/15 06:21:18;;;;;;;6.50;2.90;;;;;;;32.44;44.35;100767.04;108061;1283;22068;-65
2023/07/15 06:23:44;;;;;;;3.30;2.10;;;;;;;32.58;43.87;100764.74;108006;1287;22461;-61
2023/07/15 06:26:09;;;;;;;3.90;1.90;;;;;;;32.70;43.79;100763.73;107970;1289;21993;-68
2023/07/15 06:28:36;;;;;;;4.80;2.10;;;;;;;32.81;43.45;100762.45;107998;1279;21989;-61
2023/07/15 06:31:02;;;;;;;4.90;2.00;;;;;;;32.93;42.58;100760.48;107988;1283;21991;-61
2023/07/15 06:33:29;;;;;;;3.90;1.90;;;;;;;33.01;42.28;100759.33;107984;1289;21998;-62
2023/07/15 06:35:54;;;;;;;17.20;2.80;;;;;;;33.03;42.13;100763.73;108078;1287;21990;-60
2023/07/15 06:38:20;;;;;;;6.40;2.00;;;;;;;33.12;41.41;100764.86;108064;1278;21987;-60
2023/07/15 06:40:46;;;;;;;3.20;1.80;;;;;;;33.25;41.53;100768.55;108138;1283;21993;-61
2023/07/15 06:43:12;;;;;;;4.00;1.70;;;;;;;33.38;41.53;100765.05;108098;1284;22022;-60
2023/07/15 06:45:37;;;;;;;3.40;1.60;;;;;;;33.56;41.23;100764.52;108085;1274;22024;-68
2023/07/15 06:48:03;;;;;;;4.50;1.60;;;;;;;33.70;40.99;100765.74;108038;1284;22021;-69
2023/07/15 06:50:29;;;;;;;5.60;1.70;;;;;;;33.81;40.95;100763.73;108062;1283;21981;-60
2023/07/15 06:52:55;;;;;;;5.00;2.10;;;;;;;33.98;40.67;100763.43;107956;1284;21987;-68
2023/07/15 06:55:21;;;;;;;2.70;1.90;;;;;;;34.21;40.29;100760.96;108023;1289;22010;-69
2023/07/15 06:57:47;;;;;;;4.50;1.80;;;;;;;34.48;40.39;100760.08;107961;1283;21983;-62
2023/07/15 07:00:13;;;;;;;4.40;1.50;;;;;;;34.72;39.56;100758.94;108045;1288;21989;-68
2023/07/15 07:02:39;;;;;;;4.50;2.90;;;;;;;34.86;38.62;100756.39;108110;1288;21998;-62
2023/07/15 07:05:05;;;;;;;13.60;8.30;;;;;;;34.99;38.40;100758.84;108162;1283;21994;-70
2023/07/15 07:07:31;;;;;;;5.00;3.00;;;;;;;35.11;38.52;100762.64;108112;1288;21999;-68
2023/07/15 07:09:57;;;;;;;4.60;2.00;;;;;;;35.21;37.96;100762.37;108032;1287;21987;-61
2023/07/15 07:12:22;;;;;;;2.10;1.20;;;;;;;35.20;37.03;100768.15;108105;1284;21996;-61
2023/07/15 07:14:50;;;;;;;11.80;1.90;;;;;;;35.20;36.69;100770.71;108064;1288;21994;-61
2023/07/15 07:17:15;;;;;;;5.00;1.70;;;;;;;35.32;37.00;100770.63;108099;1286;21989;-62
2023/07/15 07:19:42;;;;;;;5.40;1.60;;;;;;;35.48;36.74;100763.11;108119;1283;21996;-62
2023/07/15 07:22:07;;;;;;;3.00;1.80;;;;;;;35.60;35.38;100769.15;108086;1288;21957;-63
2023/07/15 07:24:33;;;;;;;2.60;1.50;;;;;;;35.66;35.60;100770.15;108109;1288;21995;-62
2023/07/15 07:26:59;;;;;;;2.90;1.50;;;;;;;35.75;36.06;100768.80;108093;1288;22065;-63
2023/07/15 07:29:24;;;;;;;2.70;1.50;;;;;;;35.93;34.64;100774.75;108110;1288;21986;-61
2023/07/15 07:31:52;;;;;;;8.70;2.20;;;;;;;36.01;34.80;100776.95;108118;1288;21989;-62
2023/07/15 07:34:18;;;;;;;5.40;2.50;;;;;;;36.02;34.97;100777.77;108161;1286;21980;-62
2023/07/15 07:36:45;;;;;;;4.80;1.90;;;;;;;36.07;34.43;100776.15;108136;1277;21977;-66
2023/07/15 07:39:11;;;;;;;5.80;1.70;;;;;;;36.22;34.18;100770.95;108154;1288;21994;-62
2023/07/15 07:41:36;;;;;;;3.40;2.10;;;;;;;36.32;34.38;100772.68;108126;1288;21975;-64
2023/07/15 07:44:02;;;;;;;4.70;1.80;;;;;;;36.40;34.47;100770.92;108125;1283;23712;-68
2023/07/15 07:46:28;;;;;;;2.60;1.80;;;;;;;36.55;34.43;100769.77;108084;1288;22643;-63
2023/07/15 07:48:53;;;;;;;5.50;1.90;;;;;;;36.72;34.70;100769.31;108076;1288;22001;-62
2023/07/15 07:51:19;;;;;;;3.20;1.70;;;;;;;36.98;34.72;100771.13;108094;1283;21996;-62
2023/07/15 07:53:44;;;;;;;3.00;1.90;;;;;;;37.21;33.97;100767.86;108082;1283;22757;-66
2023/07/15 07:56:11;;;;;;;15.60;2.70;;;;;;;37.29;34.19;100765.96;108079;1288;22001;-62
2023/07/15 07:58:40;;;;;;;5.10;2.00;;;;;;;37.39;34.02;100771.19;108110;1288;21987;-63
2023/07/15 08:01:06;;;;;;;6.80;2.10;;;;;;;37.46;33.77;100767.95;108104;1288;22024;-64
2023/07/15 08:03:31;;;;;;;5.60;2.00;;;;;;;37.66;33.93;100764.05;108130;1283;22268;-68
2023/07/15 08:05:57;;;;;;;4.80;2.10;;;;;;;37.88;33.42;100759.79;108123;1284;21986;-68
2023/07/15 08:08:23;;;;;;;5.30;2.00;;;;;;;38.12;33.15;100758.47;108100;1288;22019;-67
2023/07/15 08:10:49;;;;;;;5.60;2.00;;;;;;;38.20;32.40;100764.73;108088;1283;22076;-62
2023/07/15 08:13:15;;;;;;;5.10;2.00;;;;;;;38.14;31.56;100764.41;108106;1288;22026;-68
2023/07/15 08:15:41;;;;;;;6.30;1.90;;;;;;;38.12;31.38;100764.38;108121;1277;21999;-68
2023/07/15 08:18:06;;;;;;;3.80;2.40;;;;;;;38.17;31.86;100759.34;108045;1281;23512;-62
2023/07/15 08:20:33;;;;;;;7.30;2.30;;;;;;;38.17;30.79;100762.52;108055;1278;21989;-62
2023/07/15 08:22:59;;;;;;;4.50;2.20;;;;;;;38.07;30.53;100756.98;108053;1288;22024;-63
2023/07/15 08:25:25;;;;;;;6.00;2.20;;;;;;;37.93;30.51;100754.58;108039;1284;22024;-68
2023/07/15 08:27:54;;;;;;;3.80;1.90;;;;;;;37.83;30.80;100752.66;108040;1288;21999;-68
2023/07/15 08:30:20;;;;;;;5.10;1.80;;;;;;;37.76;30.22;100758.48;108002;1283;23644;-62
2023/07/15 08:32:47;;;;;;;4.50;2.00;;;;;;;37.76;30.64;100755.14;108046;1277;21994;-62
2023/07/15 08:35:12;;;;;;;4.40;2.20;;;;;;;37.95;30.38;100756.86;108037;1288;22088;-69
2023/07/15 08:37:38;;;;;;;5.40;2.10;;;;;;;38.10;29.98;100754.69;108030;1278;22044;-69
2023/07/15 08:40:08;;;;;;;9.00;2.30;;;;;;;38.22;29.89;100753.48;108012;1284;22182;-62
2023/07/15 08:42:35;;;;;;;3.80;2.00;;;;;;;38.45;30.69;100755.77;108026;1287;21992;-69
2023/07/15 08:45:00;;;;;;;3.60;1.80;;;;;;;38.75;30.13;100760.52;108086;1283;22001;-69
2023/07/15 08:47:27;;;;;;;4.00;2.00;;;;;;;38.93;29.57;100759.83;107709;1284;21988;-68
2023/07/15 08:49:53;;;;;;;3.70;2.00;;;;;;;39.12;30.35;100754.77;107917;1289;22002;-62
2023/07/15 08:52:21;;;;;;;3.50;2.10;;;;;;;39.33;29.80;100754.99;107983;1289;22009;-64
2023/07/15 08:54:52;;;;;;;3.50;2.00;;;;;;;39.31;29.70;100753.58;107992;1287;22741;-62
2023/07/15 08:57:20;;;;;;;4.00;1.70;;;;;;;39.41;30.22;100749.77;107952;1284;21977;-68
2023/07/15 08:59:46;;;;;;;5.50;2.20;;;;;;;39.52;29.33;100752.82;107954;1289;22208;-72
2023/07/15 09:02:12;;;;;;;3.40;1.80;;;;;;;39.38;28.37;100757.15;107994;1286;21995;-63
2023/07/15 09:04:38;;;;;;;4.60;2.20;;;;;;;39.15;27.99;100753.92;107960;1289;21987;-69
2023/07/15 09:07:04;;;;;;;4.20;2.00;;;;;;;38.95;27.90;100749.13;107989;1289;22049;-67
2023/07/15 09:09:35;;;;;;;3.40;1.90;;;;;;;38.79;27.99;100757.29;108032;1289;21998;-69
2023/07/15 09:12:09;;;;;;;9.70;2.50;;;;;;;38.92;28.11;100762.26;108018;1287;21987;-69
2023/07/15 09:14:42;;;;;;;3.70;2.00;;;;;;;39.05;27.90;100764.63;108051;1289;21992;-63
2023/07/15 09:17:08;;;;;;;4.60;2.40;;;;;;;39.17;28.31;100759.52;108037;1287;22000;-63
2023/07/15 09:19:34;;;;;;;3.70;2.50;;;;;;;39.25;27.41;100760.86;107976;1283;21997;-62
2023/07/15 09:22:05;;;;;;;4.00;2.30;;;;;;;39.25;28.21;100759.42;107992;1289;21988;-68
2023/07/15 09:24:32;;;;;;;5.30;2.30;;;;;;;39.35;27.98;100756.94;108027;1283;21987;-63
2023/07/15 09:26:59;;;;;;;3.10;2.10;;;;;;;39.52;27.54;100755.99;108011;1283;22029;-68
2023/07/15 09:29:25;;;;;;;9.80;2.70;;;;;;;39.78;28.53;100753.54;108003;1286;21996;-62
2023/07/15 09:31:51;;;;;;;5.70;2.60;;;;;;;40.01;27.94;100755.10;108112;1288;21989;-65
2023/07/15 09:34:17;;;;;;;11.10;2.80;;;;;;;40.19;27.20;100752.77;107854;1280;22046;-69
2023/07/15 09:36:43;;;;;;;4.60;2.50;;;;;;;40.25;26.92;100756.92;108134;1280;22044;-63
2023/07/15 09:39:19;;;;;;;4.20;2.20;;;;;;;40.28;27.36;100756.09;108110;1282;21989;-62
2023/07/15 09:41:44;;;;;;;5.10;2.40;;;;;;;40.28;26.64;100754.14;108070;1288;22002;-67
2023/07/15 09:44:10;;;;;;;5.50;2.50;;;;;;;40.33;27.39;100750.58;107999;1288;22044;-62
2023/07/15 09:46:36;;;;;;;11.30;6.00;;;;;;;40.49;27.21;100749.52;108032;1288;21994;-63
2023/07/15 09:49:02;;;;;;;7.90;4.90;;;;;;;40.81;26.92;100748.52;107791;1279;23751;-63
2023/07/15 09:51:27;;;;;;;6.20;3.20;;;;;;;40.92;26.83;100747.83;108032;1277;22027;-64
2023/07/15 09:53:56;;;;;;;6.80;2.20;;;;;;;40.87;26.54;100744.51;108070;1283;22138;-63
2023/07/15 09:56:35;;;;;;;8.00;2.30;;;;;;;40.67;25.95;100745.08;108091;1288;22129;-65
2023/07/15 09:59:04;;;;;;;4.60;2.40;;;;;;;40.38;26.39;100752.77;108126;1283;23033;-65
2023/07/15 10:01:37;;;;;;;4.30;2.20;;;;;;;40.12;26.53;100749.73;108023;1288;23781;-61
2023/07/15 10:04:25;;;;;;;3.60;1.80;;;;;;;39.97;26.43;100749.98;108021;1288;21995;-60
2023/07/15 10:06:54;;;;;;;4.10;2.10;;;;;;;39.83;25.75;100750.05;108042;1287;21992;-61
2023/07/15 10:09:20;;;;;;;3.80;2.20;;;;;;;39.75;25.74;100751.98;108021;1276;22162;-61
2023/07/15 10:11:46;;;;;;;7.40;2.80;;;;;;;39.70;25.16;100755.46;107744;1288;21985;-62
2023/07/15 10:14:12;;;;;;;3.80;2.10;;;;;;;39.68;25.69;100750.41;108023;1283;21992;-64
2023/07/15 10:16:38;;;;;;;5.10;2.30;;;;;;;39.79;25.85;100746.08;107727;1287;22210;-61
2023/07/15 10:19:04;;;;;;;4.50;2.80;;;;;;;39.96;26.21;100747.19;107996;1279;21987;-64
2023/07/15 10:21:30;;;;;;;5.30;2.40;;;;;;;40.15;26.64;100750.70;107983;1288;22090;-62
2023/07/15 10:24:07;;;;;;;5.40;2.10;;;;;;;40.30;26.50;100746.30;108026;1286;21988;-62
2023/07/15 10:26:34;;;;;;;4.10;2.10;;;;;;;40.54;26.36;100745.63;108070;1288;22000;-64
2023/07/15 10:29:01;;;;;;;4.60;2.70;;;;;;;40.85;25.99;100738.95;107985;1288;22027;-65
2023/07/15 10:31:26;;;;;;;7.10;2.60;;;;;;;41.01;24.82;100738.36;107804;1281;21986;-65
2023/07/15 10:33:59;;;;;;;5.70;2.50;;;;;;;41.09;24.73;100741.72;108111;1280;22000;-64
2023/07/15 10:36:45;;;;;;;6.40;2.40;;;;;;;41.26;24.81;100742.23;107822;1289;21996;-64
2023/07/15 10:39:14;;;;;;;3.10;2.00;;;;;;;41.48;24.69;100738.20;108077;1286;22140;-60
2023/07/15 10:41:44;;;;;;;4.70;2.30;;;;;;;41.87;25.09;100738.23;109953;1289;21928;-66
2023/07/15 10:44:19;;;;;;;4.70;2.10;;;;;;;42.02;24.65;100736.42;109980;1289;21895;-62
2023/07/15 10:47:07;;;;;;;7.00;2.70;;;;;;;42.05;24.62;100733.27;109986;1280;22308;-62
2023/07/15 10:49:33;;;;;;;4.40;2.20;;;;;;;42.17;24.60;100734.26;108305;1287;22007;-65
2023/07/15 10:51:59;;;;;;;3.00;2.20;;;;;;;42.25;24.58;100737.15;107941;1289;21996;-62
2023/07/15 10:54:32;;;;;;;5.40;2.10;;;;;;;42.28;24.08;100733.98;108090;1286;21987;-65
2023/07/15 10:57:10;;;;;;;4.70;2.40;;;;;;;42.32;23.90;100729.27;108130;1288;21990;-62
2023/07/15 10:59:40;;;;;;;3.10;2.00;;;;;;;42.31;23.39;100728.75;107860;1283;22002;-61
2023/07/15 11:02:06;;;;;;;2.80;1.80;;;;;;;42.40;24.04;100724.14;108058;1288;21995;-61
2023/07/15 11:04:33;;;;;;;3.60;2.10;;;;;;;42.60;23.97;100720.70;108015;1289;21991;-65
2023/07/15 11:07:00;;;;;;;3.60;2.20;;;;;;;42.66;24.09;100716.02;107998;1288;21998;-66
2023/07/15 11:09:27;;;;;;;4.80;2.00;;;;;;;42.76;24.59;100709.10;108063;1288;21988;-62
2023/07/15 11:11:53;;;;;;;5.20;2.70;;;;;;;43.00;24.19;100710.88;108039;1283;21990;-66
2023/07/15 11:14:20;;;;;;;6.80;2.60;;;;;;;43.05;22.76;100707.98;107977;1288;21990;-62
2023/07/15 11:16:56;;;;;;;10.40;5.30;;;;;;;42.93;22.51;100710.81;108011;1286;21997;-62